Airfield :
LOGIN :

Register | Disclaimer

   EN    FR    IT 

 










Legend :    VFR   Marginal VFR   IFR   Intensive IFR   Very Intensive IFR
Visi :
Ceiling :
>= 8 km
>= 3000ft
5 to 8 km
1000 to 3000 ft
1500m to 5 km
500 to 1000 ft
800 to 1500m
200 to 500 ft
< 800m
< 200 ft
Symbols :   Thunderstorms  Fog  Heavy snow  Heavy precipitations  Wind > 20 kt
SIGMETs :     Misc.  Thunderstorms  Icing  Turbulence  Mountain Waves  Volcanic Ashes







- Airport Elevation : 915 ft
- IATA code : LUG


LSZA - Lugano

CURRENT METAR :
  • 171420Z 01015KT CAVOK 04/M13 Q1018 NOSIG

EXPIRED METARs :
  • 171350Z 01017KT CAVOK 04/M13 Q1018 NOSIG
  • 171320Z AUTO 01016KT CAVOK 05/M13 Q1018
  • 171250Z 01016KT CAVOK 04/M12 Q1018 NOSIG
  • 171220Z 36018KT CAVOK 04/M13 Q1018 NOSIG
  • 171150Z 01017KT 9999 FEW100 04/M12 Q1019 NOSIG

TAF TAF LSZA
Valid from the 17 at 15:00 until the 18 at 00:00 UTC


171425Z 1715/1724 01017KT CAVOK
BECMG 1719/1721 01007KT
ATIS : +41 22 417 40 88
No reported NOTAMs for that airfield.



MET'MAP, your aeronautical weather chart ! - Copyright ORBIFLY December 2007 - Disclaimer

ORBIFLY MET'MAP TEAM :

Programming & Development : Alexandra Zaïnal
Concept & Development : Baudouin d'Aumeries
Co-Development & Prog : Marc-Olivier Méhu
Technical & hardware support : Manuel Goepfert

Contact : metmap@orbifly.com




SOURCES & CREDITS :

   NOAA